sensor_id;sensor_type;location;lat;lon;timestamp;temperature;humidity
4306;DHT22;2166;49.926;8.608;2023-06-10T00:01:44;17.30;73.10
4306;DHT22;2166;49.926;8.608;2023-06-10T00:04:21;17.20;73.10
4306;DHT22;2166;49.926;8.608;2023-06-10T00:06:58;17.10;73.20
4306;DHT22;2166;49.926;8.608;2023-06-10T00:09:41;17.10;73.10
4306;DHT22;2166;49.926;8.608;2023-06-10T00:12:11;17.00;73.10
4306;DHT22;2166;49.926;8.608;2023-06-10T00:14:40;17.00;73.20
4306;DHT22;2166;49.926;8.608;2023-06-10T00:17:09;16.90;73.20
4306;DHT22;2166;49.926;8.608;2023-06-10T00:19:44;16.80;73.20
4306;DHT22;2166;49.926;8.608;2023-06-10T00:22:18;16.80;73.40
4306;DHT22;2166;49.926;8.608;2023-06-10T00:24:55;16.80;73.40
4306;DHT22;2166;49.926;8.608;2023-06-10T00:27:38;16.70;73.40
4306;DHT22;2166;49.926;8.608;2023-06-10T00:30:09;16.70;73.40
4306;DHT22;2166;49.926;8.608;2023-06-10T00:32:38;16.70;73.30
4306;DHT22;2166;49.926;8.608;2023-06-10T00:35:11;16.60;73.40
4306;DHT22;2166;49.926;8.608;2023-06-10T00:37:47;16.60;73.40
4306;DHT22;2166;49.926;8.608;2023-06-10T00:40:20;16.50;73.50
4306;DHT22;2166;49.926;8.608;2023-06-10T00:42:51;16.50;73.60
4306;DHT22;2166;49.926;8.608;2023-06-10T00:45:21;16.40;73.60
4306;DHT22;2166;49.926;8.608;2023-06-10T00:47:52;16.40;73.70
4306;DHT22;2166;49.926;8.608;2023-06-10T00:50:24;16.40;73.80
4306;DHT22;2166;49.926;8.608;2023-06-10T00:52:55;16.30;73.80
4306;DHT22;2166;49.926;8.608;2023-06-10T00:55:26;16.30;74.00
4306;DHT22;2166;49.926;8.608;2023-06-10T00:57:56;16.20;74.00
4306;DHT22;2166;49.926;8.608;2023-06-10T01:00:25;16.20;74.10
4306;DHT22;2166;49.926;8.608;2023-06-10T01:02:55;16.10;74.10
4306;DHT22;2166;49.926;8.608;2023-06-10T01:05:27;16.10;74.10
4306;DHT22;2166;49.926;8.608;2023-06-10T01:08:00;16.00;74.20
4306;DHT22;2166;49.926;8.608;2023-06-10T01:10:33;16.00;74.20
4306;DHT22;2166;49.926;8.608;2023-06-10T01:13:07;16.00;74.30
4306;DHT22;2166;49.926;8.608;2023-06-10T01:15:41;16.00;74.20
4306;DHT22;2166;49.926;8.608;2023-06-10T01:18:12;16.00;74.20
4306;DHT22;2166;49.926;8.608;2023-06-10T01:20:45;16.00;74.20
4306;DHT22;2166;49.926;8.608;2023-06-10T01:23:22;16.00;74.30
4306;DHT22;2166;49.926;8.608;2023-06-10T01:26:03;16.00;74.30
4306;DHT22;2166;49.926;8.608;2023-06-10T01:31:31;16.00;74.40
4306;DHT22;2166;49.926;8.608;2023-06-10T01:34:09;16.00;74.50
4306;DHT22;2166;49.926;8.608;2023-06-10T01:36:40;16.00;74.40
4306;DHT22;2166;49.926;8.608;2023-06-10T01:39:12;16.00;74.40
4306;DHT22;2166;49.926;8.608;2023-06-10T01:41:45;16.00;74.30
4306;DHT22;2166;49.926;8.608;2023-06-10T01:44:17;15.90;74.40
4306;DHT22;2166;49.926;8.608;2023-06-10T01:46:48;15.90;74.30
4306;DHT22;2166;49.926;8.608;2023-06-10T01:49:18;15.90;74.40
4306;DHT22;2166;49.926;8.608;2023-06-10T01:51:49;15.90;74.50
4306;DHT22;2166;49.926;8.608;2023-06-10T01:54:20;15.90;74.50
4306;DHT22;2166;49.926;8.608;2023-06-10T01:56:50;15.80;74.70
4306;DHT22;2166;49.926;8.608;2023-06-10T01:59:19;15.80;74.60
4306;DHT22;2166;49.926;8.608;2023-06-10T02:01:48;15.90;74.50
4306;DHT22;2166;49.926;8.608;2023-06-10T02:04:18;15.90;74.50
4306;DHT22;2166;49.926;8.608;2023-06-10T02:06:50;15.90;74.50
4306;DHT22;2166;49.926;8.608;2023-06-10T02:09:30;15.90;74.50
4306;DHT22;2166;49.926;8.608;2023-06-10T02:12:02;15.90;74.50
4306;DHT22;2166;49.926;8.608;2023-06-10T02:14:35;15.80;74.60
4306;DHT22;2166;49.926;8.608;2023-06-10T02:17:05;15.80;74.70
4306;DHT22;2166;49.926;8.608;2023-06-10T02:19:41;15.80;74.60
4306;DHT22;2166;49.926;8.608;2023-06-10T02:22:21;15.80;74.70
4306;DHT22;2166;49.926;8.608;2023-06-10T02:24:57;15.70;74.70
4306;DHT22;2166;49.926;8.608;2023-06-10T02:27:30;15.70;74.80
4306;DHT22;2166;49.926;8.608;2023-06-10T02:30:01;15.60;74.80
4306;DHT22;2166;49.926;8.608;2023-06-10T02:32:35;15.60;74.80
4306;DHT22;2166;49.926;8.608;2023-06-10T02:35:05;15.60;74.90
4306;DHT22;2166;49.926;8.608;2023-06-10T02:37:38;15.60;74.80
4306;DHT22;2166;49.926;8.608;2023-06-10T02:40:12;15.60;74.90
4306;DHT22;2166;49.926;8.608;2023-06-10T02:42:40;15.50;74.90
4306;DHT22;2166;49.926;8.608;2023-06-10T02:45:14;15.50;74.80
4306;DHT22;2166;49.926;8.608;2023-06-10T02:47:44;15.50;75.10
4306;DHT22;2166;49.926;8.608;2023-06-10T02:50:13;15.50;75.00
4306;DHT22;2166;49.926;8.608;2023-06-10T02:53:02;15.50;75.00
4306;DHT22;2166;49.926;8.608;2023-06-10T02:55:37;15.50;75.10
4306;DHT22;2166;49.926;8.608;2023-06-10T02:58:12;15.50;75.10
4306;DHT22;2166;49.926;8.608;2023-06-10T03:00:41;15.40;75.10
4306;DHT22;2166;49.926;8.608;2023-06-10T03:03:14;15.40;75.20
4306;DHT22;2166;49.926;8.608;2023-06-10T03:06:00;15.30;75.20
4306;DHT22;2166;49.926;8.608;2023-06-10T03:08:34;15.20;75.50
4306;DHT22;2166;49.926;8.608;2023-06-10T03:11:13;15.10;75.50
4306;DHT22;2166;49.926;8.608;2023-06-10T03:13:47;15.00;75.50
4306;DHT22;2166;49.926;8.608;2023-06-10T03:16:18;15.00;75.60
4306;DHT22;2166;49.926;8.608;2023-06-10T03:18:50;14.90;75.70
4306;DHT22;2166;49.926;8.608;2023-06-10T03:21:24;14.90;75.70
4306;DHT22;2166;49.926;8.608;2023-06-10T03:23:56;14.90;75.70
4306;DHT22;2166;49.926;8.608;2023-06-10T03:26:27;14.80;75.70
4306;DHT22;2166;49.926;8.608;2023-06-10T03:28:55;14.90;75.80
4306;DHT22;2166;49.926;8.608;2023-06-10T03:31:27;14.90;75.70
4306;DHT22;2166;49.926;8.608;2023-06-10T03:33:57;14.90;75.70
4306;DHT22;2166;49.926;8.608;2023-06-10T03:36:27;14.90;75.70
4306;DHT22;2166;49.926;8.608;2023-06-10T03:38:57;15.00;75.70
4306;DHT22;2166;49.926;8.608;2023-06-10T03:41:28;15.00;75.60
4306;DHT22;2166;49.926;8.608;2023-06-10T03:43:58;15.10;75.70
4306;DHT22;2166;49.926;8.608;2023-06-10T03:46:29;15.10;75.60
4306;DHT22;2166;49.926;8.608;2023-06-10T03:48:59;15.10;75.60
4306;DHT22;2166;49.926;8.608;2023-06-10T03:51:30;15.20;75.50
4306;DHT22;2166;49.926;8.608;2023-06-10T03:53:59;15.30;75.60
4306;DHT22;2166;49.926;8.608;2023-06-10T03:56:30;15.40;75.50
4306;DHT22;2166;49.926;8.608;2023-06-10T03:59:01;15.40;75.40
4306;DHT22;2166;49.926;8.608;2023-06-10T04:01:33;15.50;75.30
4306;DHT22;2166;49.926;8.608;2023-06-10T04:04:07;15.60;75.30
4306;DHT22;2166;49.926;8.608;2023-06-10T04:06:38;15.80;75.30
4306;DHT22;2166;49.926;8.608;2023-06-10T04:09:10;16.00;75.10
4306;DHT22;2166;49.926;8.608;2023-06-10T04:11:41;16.30;74.90
4306;DHT22;2166;49.926;8.608;2023-06-10T04:14:11;16.70;74.50
4306;DHT22;2166;49.926;8.608;2023-06-10T04:16:41;17.00;74.20
4306;DHT22;2166;49.926;8.608;2023-06-10T04:19:13;17.30;73.80
4306;DHT22;2166;49.926;8.608;2023-06-10T04:21:43;17.70;73.40
4306;DHT22;2166;49.926;8.608;2023-06-10T04:24:12;18.10;73.10
4306;DHT22;2166;49.926;8.608;2023-06-10T04:26:44;18.40;72.90
4306;DHT22;2166;49.926;8.608;2023-06-10T04:29:15;18.80;72.60
4306;DHT22;2166;49.926;8.608;2023-06-10T04:31:46;19.00;72.40
4306;DHT22;2166;49.926;8.608;2023-06-10T04:34:15;19.30;72.20
4306;DHT22;2166;49.926;8.608;2023-06-10T04:36:47;19.50;72.20
4306;DHT22;2166;49.926;8.608;2023-06-10T04:39:18;20.00;71.90
4306;DHT22;2166;49.926;8.608;2023-06-10T04:41:48;20.50;71.30
4306;DHT22;2166;49.926;8.608;2023-06-10T04:44:21;21.00;70.50
4306;DHT22;2166;49.926;8.608;2023-06-10T04:46:53;21.40;69.90
4306;DHT22;2166;49.926;8.608;2023-06-10T04:49:23;21.80;69.40
4306;DHT22;2166;49.926;8.608;2023-06-10T04:51:52;22.10;68.60
4306;DHT22;2166;49.926;8.608;2023-06-10T04:54:22;22.20;68.60
4306;DHT22;2166;49.926;8.608;2023-06-10T04:56:53;22.50;68.60
4306;DHT22;2166;49.926;8.608;2023-06-10T04:59:26;23.00;67.70
4306;DHT22;2166;49.926;8.608;2023-06-10T05:01:58;23.20;66.70
4306;DHT22;2166;49.926;8.608;2023-06-10T05:04:28;23.60;66.10
4306;DHT22;2166;49.926;8.608;2023-06-10T05:06:59;24.00;65.30
4306;DHT22;2166;49.926;8.608;2023-06-10T05:09:29;24.40;64.30
4306;DHT22;2166;49.926;8.608;2023-06-10T05:12:07;24.90;63.10
4306;DHT22;2166;49.926;8.608;2023-06-10T05:14:37;25.30;61.20
4306;DHT22;2166;49.926;8.608;2023-06-10T05:17:07;25.30;61.00
4306;DHT22;2166;49.926;8.608;2023-06-10T05:19:39;25.30;60.60
4306;DHT22;2166;49.926;8.608;2023-06-10T05:22:09;25.20;61.00
4306;DHT22;2166;49.926;8.608;2023-06-10T05:24:38;25.40;60.70
4306;DHT22;2166;49.926;8.608;2023-06-10T05:27:11;25.50;59.80
4306;DHT22;2166;49.926;8.608;2023-06-10T05:29:40;25.70;59.60
4306;DHT22;2166;49.926;8.608;2023-06-10T05:32:09;26.10;58.60
4306;DHT22;2166;49.926;8.608;2023-06-10T05:34:38;26.20;58.10
4306;DHT22;2166;49.926;8.608;2023-06-10T05:37:07;26.40;57.60
4306;DHT22;2166;49.926;8.608;2023-06-10T05:39:36;26.80;57.10
4306;DHT22;2166;49.926;8.608;2023-06-10T05:42:07;27.10;55.80
4306;DHT22;2166;49.926;8.608;2023-06-10T05:44:38;27.50;54.90
4306;DHT22;2166;49.926;8.608;2023-06-10T05:47:07;27.60;54.90
4306;DHT22;2166;49.926;8.608;2023-06-10T05:49:38;28.10;53.90
4306;DHT22;2166;49.926;8.608;2023-06-10T05:52:08;28.30;53.00
4306;DHT22;2166;49.926;8.608;2023-06-10T05:54:38;28.60;52.80
4306;DHT22;2166;49.926;8.608;2023-06-10T05:57:09;28.90;52.50
4306;DHT22;2166;49.926;8.608;2023-06-10T05:59:40;29.20;52.00
4306;DHT22;2166;49.926;8.608;2023-06-10T06:02:12;29.60;50.90
4306;DHT22;2166;49.926;8.608;2023-06-10T06:04:46;30.00;49.90
4306;DHT22;2166;49.926;8.608;2023-06-10T06:07:15;30.20;49.30
4306;DHT22;2166;49.926;8.608;2023-06-10T06:09:44;30.00;49.40
4306;DHT22;2166;49.926;8.608;2023-06-10T06:12:12;30.20;49.70
4306;DHT22;2166;49.926;8.608;2023-06-10T06:14:45;30.20;49.20
4306;DHT22;2166;49.926;8.608;2023-06-10T06:17:13;30.40;49.10
4306;DHT22;2166;49.926;8.608;2023-06-10T06:19:42;30.70;48.70
4306;DHT22;2166;49.926;8.608;2023-06-10T06:22:10;30.80;48.40
4306;DHT22;2166;49.926;8.608;2023-06-10T06:24:40;30.80;46.70
4306;DHT22;2166;49.926;8.608;2023-06-10T06:27:11;30.60;47.70
4306;DHT22;2166;49.926;8.608;2023-06-10T06:29:44;31.20;47.30
4306;DHT22;2166;49.926;8.608;2023-06-10T06:32:15;31.40;45.80
4306;DHT22;2166;49.926;8.608;2023-06-10T06:34:44;31.00;46.00
4306;DHT22;2166;49.926;8.608;2023-06-10T06:37:13;31.10;47.00
4306;DHT22;2166;49.926;8.608;2023-06-10T06:39:45;31.40;46.40
4306;DHT22;2166;49.926;8.608;2023-06-10T06:42:16;32.20;45.50
4306;DHT22;2166;49.926;8.608;2023-06-10T06:45:12;32.40;44.70
4306;DHT22;2166;49.926;8.608;2023-06-10T06:47:42;33.00;43.90
4306;DHT22;2166;49.926;8.608;2023-06-10T06:50:10;33.50;43.40
4306;DHT22;2166;49.926;8.608;2023-06-10T06:52:40;34.20;42.10
4306;DHT22;2166;49.926;8.608;2023-06-10T06:55:09;33.90;42.40
4306;DHT22;2166;49.926;8.608;2023-06-10T06:57:38;34.00;42.50
4306;DHT22;2166;49.926;8.608;2023-06-10T07:00:07;34.20;42.10
4306;DHT22;2166;49.926;8.608;2023-06-10T07:02:37;34.60;41.50
4306;DHT22;2166;49.926;8.608;2023-06-10T07:05:08;35.10;40.40
4306;DHT22;2166;49.926;8.608;2023-06-10T07:07:37;35.10;40.50
4306;DHT22;2166;49.926;8.608;2023-06-10T07:10:07;35.30;40.20
4306;DHT22;2166;49.926;8.608;2023-06-10T07:12:36;35.60;39.70
4306;DHT22;2166;49.926;8.608;2023-06-10T07:15:06;35.50;39.90
4306;DHT22;2166;49.926;8.608;2023-06-10T07:17:41;35.50;40.00
4306;DHT22;2166;49.926;8.608;2023-06-10T07:20:11;35.90;39.50
4306;DHT22;2166;49.926;8.608;2023-06-10T07:22:42;35.90;39.50
4306;DHT22;2166;49.926;8.608;2023-06-10T07:25:14;36.40;39.20
4306;DHT22;2166;49.926;8.608;2023-06-10T07:27:43;37.00;38.60
4306;DHT22;2166;49.926;8.608;2023-06-10T07:30:13;36.80;38.70
4306;DHT22;2166;49.926;8.608;2023-06-10T07:32:44;36.90;38.40
4306;DHT22;2166;49.926;8.608;2023-06-10T07:35:14;37.00;38.00
4306;DHT22;2166;49.926;8.608;2023-06-10T07:37:43;36.70;38.40
4306;DHT22;2166;49.926;8.608;2023-06-10T07:40:14;36.60;38.60
4306;DHT22;2166;49.926;8.608;2023-06-10T07:42:45;36.80;38.40
4306;DHT22;2166;49.926;8.608;2023-06-10T07:45:14;37.10;37.80
4306;DHT22;2166;49.926;8.608;2023-06-10T07:47:45;37.40;37.70
4306;DHT22;2166;49.926;8.608;2023-06-10T07:50:16;37.80;36.90
4306;DHT22;2166;49.926;8.608;2023-06-10T07:52:45;37.80;36.30
4306;DHT22;2166;49.926;8.608;2023-06-10T07:55:13;38.10;36.20
4306;DHT22;2166;49.926;8.608;2023-06-10T07:57:45;38.40;36.30
4306;DHT22;2166;49.926;8.608;2023-06-10T08:00:15;38.80;35.70
4306;DHT22;2166;49.926;8.608;2023-06-10T08:02:47;38.90;35.70
4306;DHT22;2166;49.926;8.608;2023-06-10T08:05:17;39.30;34.80
4306;DHT22;2166;49.926;8.608;2023-06-10T08:07:49;38.50;35.90
4306;DHT22;2166;49.926;8.608;2023-06-10T08:10:18;38.70;36.40
4306;DHT22;2166;49.926;8.608;2023-06-10T08:12:47;39.50;35.40
4306;DHT22;2166;49.926;8.608;2023-06-10T08:15:18;40.00;34.10
4306;DHT22;2166;49.926;8.608;2023-06-10T08:17:48;40.10;34.00
4306;DHT22;2166;49.926;8.608;2023-06-10T08:20:17;39.90;34.40
4306;DHT22;2166;49.926;8.608;2023-06-10T08:22:46;40.00;34.70
4306;DHT22;2166;49.926;8.608;2023-06-10T08:25:14;40.60;33.80
4306;DHT22;2166;49.926;8.608;2023-06-10T08:27:42;41.00;33.10
4306;DHT22;2166;49.926;8.608;2023-06-10T08:30:12;41.20;33.30
4306;DHT22;2166;49.926;8.608;2023-06-10T08:32:42;40.70;33.50
4306;DHT22;2166;49.926;8.608;2023-06-10T08:35:13;41.30;33.10
4306;DHT22;2166;49.926;8.608;2023-06-10T08:37:42;41.60;32.70
4306;DHT22;2166;49.926;8.608;2023-06-10T08:40:12;41.80;32.70
4306;DHT22;2166;49.926;8.608;2023-06-10T08:42:45;42.20;32.40
4306;DHT22;2166;49.926;8.608;2023-06-10T08:45:16;42.30;32.40
4306;DHT22;2166;49.926;8.608;2023-06-10T08:47:50;42.80;32.40
4306;DHT22;2166;49.926;8.608;2023-06-10T08:50:21;43.10;31.50
4306;DHT22;2166;49.926;8.608;2023-06-10T08:52:54;42.60;31.80
4306;DHT22;2166;49.926;8.608;2023-06-10T08:55:31;42.70;31.50
4306;DHT22;2166;49.926;8.608;2023-06-10T08:58:01;42.10;32.00
4306;DHT22;2166;49.926;8.608;2023-06-10T09:00:32;41.60;32.30
4306;DHT22;2166;49.926;8.608;2023-06-10T09:03:01;41.70;33.20
4306;DHT22;2166;49.926;8.608;2023-06-10T09:05:34;41.90;32.80
4306;DHT22;2166;49.926;8.608;2023-06-10T09:08:06;42.30;32.30
4306;DHT22;2166;49.926;8.608;2023-06-10T09:10:36;42.30;32.70
4306;DHT22;2166;49.926;8.608;2023-06-10T09:13:05;42.00;33.10
4306;DHT22;2166;49.926;8.608;2023-06-10T09:15:34;41.30;33.40
4306;DHT22;2166;49.926;8.608;2023-06-10T09:18:09;40.40;34.50
4306;DHT22;2166;49.926;8.608;2023-06-10T09:20:42;40.00;34.20
4306;DHT22;2166;49.926;8.608;2023-06-10T09:23:12;40.40;34.50
4306;DHT22;2166;49.926;8.608;2023-06-10T09:25:44;40.40;34.40
4306;DHT22;2166;49.926;8.608;2023-06-10T09:28:13;40.30;34.10
4306;DHT22;2166;49.926;8.608;2023-06-10T09:30:44;40.10;34.00
4306;DHT22;2166;49.926;8.608;2023-06-10T09:33:14;40.00;34.20
4306;DHT22;2166;49.926;8.608;2023-06-10T09:35:48;40.20;34.70
4306;DHT22;2166;49.926;8.608;2023-06-10T09:38:20;39.70;34.60
4306;DHT22;2166;49.926;8.608;2023-06-10T09:40:50;39.90;35.40
4306;DHT22;2166;49.926;8.608;2023-06-10T09:43:19;39.50;35.40
4306;DHT22;2166;49.926;8.608;2023-06-10T09:45:48;40.10;34.60
4306;DHT22;2166;49.926;8.608;2023-06-10T09:48:20;39.90;34.80
4306;DHT22;2166;49.926;8.608;2023-06-10T09:50:52;39.70;35.40
4306;DHT22;2166;49.926;8.608;2023-06-10T09:53:23;39.70;34.40
4306;DHT22;2166;49.926;8.608;2023-06-10T09:55:52;40.10;34.70
4306;DHT22;2166;49.926;8.608;2023-06-10T09:58:34;40.10;33.70
4306;DHT22;2166;49.926;8.608;2023-06-10T10:01:06;40.50;34.20
4306;DHT22;2166;49.926;8.608;2023-06-10T10:03:43;41.80;32.50
4306;DHT22;2166;49.926;8.608;2023-06-10T10:06:18;43.00;31.80
4306;DHT22;2166;49.926;8.608;2023-06-10T10:08:49;43.70;31.30
4306;DHT22;2166;49.926;8.608;2023-06-10T10:11:19;44.50;30.10
4306;DHT22;2166;49.926;8.608;2023-06-10T10:13:50;45.40;29.80
4306;DHT22;2166;49.926;8.608;2023-06-10T10:16:21;44.90;29.10
4306;DHT22;2166;49.926;8.608;2023-06-10T10:18:54;44.90;29.80
4306;DHT22;2166;49.926;8.608;2023-06-10T10:21:27;45.20;29.30
4306;DHT22;2166;49.926;8.608;2023-06-10T10:24:01;45.30;29.50
4306;DHT22;2166;49.926;8.608;2023-06-10T10:26:31;44.20;30.00
4306;DHT22;2166;49.926;8.608;2023-06-10T10:29:07;43.60;30.80
4306;DHT22;2166;49.926;8.608;2023-06-10T10:31:39;42.90;32.40
4306;DHT22;2166;49.926;8.608;2023-06-10T10:34:15;42.60;31.50
4306;DHT22;2166;49.926;8.608;2023-06-10T10:36:47;42.50;31.80
4306;DHT22;2166;49.926;8.608;2023-06-10T10:39:16;43.60;31.10
4306;DHT22;2166;49.926;8.608;2023-06-10T10:41:47;44.80;30.00
4306;DHT22;2166;49.926;8.608;2023-06-10T10:44:17;44.70;30.10
4306;DHT22;2166;49.926;8.608;2023-06-10T10:46:49;44.00;29.00
4306;DHT22;2166;49.926;8.608;2023-06-10T10:49:20;44.00;29.50
4306;DHT22;2166;49.926;8.608;2023-06-10T10:51:59;43.20;29.30
4306;DHT22;2166;49.926;8.608;2023-06-10T10:54:29;42.80;30.70
4306;DHT22;2166;49.926;8.608;2023-06-10T10:57:17;42.90;31.50
4306;DHT22;2166;49.926;8.608;2023-06-10T10:59:54;44.00;30.60
4306;DHT22;2166;49.926;8.608;2023-06-10T11:02:37;44.60;29.80
4306;DHT22;2166;49.926;8.608;2023-06-10T11:05:13;43.80;29.60
4306;DHT22;2166;49.926;8.608;2023-06-10T11:07:54;43.60;29.90
4306;DHT22;2166;49.926;8.608;2023-06-10T11:10:30;42.70;30.30
4306;DHT22;2166;49.926;8.608;2023-06-10T11:13:00;40.80;32.00
4306;DHT22;2166;49.926;8.608;2023-06-10T11:15:30;39.80;32.90
4306;DHT22;2166;49.926;8.608;2023-06-10T11:18:14;40.50;32.20
4306;DHT22;2166;49.926;8.608;2023-06-10T11:20:57;41.70;31.40
4306;DHT22;2166;49.926;8.608;2023-06-10T11:23:41;42.90;30.10
4306;DHT22;2166;49.926;8.608;2023-06-10T11:26:29;43.80;29.00
4306;DHT22;2166;49.926;8.608;2023-06-10T11:29:07;42.00;29.80
4306;DHT22;2166;49.926;8.608;2023-06-10T11:31:49;40.90;31.50
4306;DHT22;2166;49.926;8.608;2023-06-10T11:34:24;41.80;30.90
4306;DHT22;2166;49.926;8.608;2023-06-10T11:36:54;42.00;30.00
4306;DHT22;2166;49.926;8.608;2023-06-10T11:39:27;41.40;30.50
4306;DHT22;2166;49.926;8.608;2023-06-10T11:41:57;40.90;30.80
4306;DHT22;2166;49.926;8.608;2023-06-10T11:44:28;40.80;30.90
4306;DHT22;2166;49.926;8.608;2023-06-10T11:46:59;41.10;31.20
4306;DHT22;2166;49.926;8.608;2023-06-10T11:49:28;41.70;30.30
4306;DHT22;2166;49.926;8.608;2023-06-10T11:51:57;41.70;30.30
4306;DHT22;2166;49.926;8.608;2023-06-10T11:54:37;40.50;30.60
4306;DHT22;2166;49.926;8.608;2023-06-10T11:57:05;40.00;31.70
4306;DHT22;2166;49.926;8.608;2023-06-10T11:59:35;40.10;31.50
4306;DHT22;2166;49.926;8.608;2023-06-10T12:02:04;40.50;31.20
4306;DHT22;2166;49.926;8.608;2023-06-10T12:04:33;41.10;29.80
4306;DHT22;2166;49.926;8.608;2023-06-10T12:07:02;41.80;29.20
4306;DHT22;2166;49.926;8.608;2023-06-10T12:09:31;42.50;29.00
4306;DHT22;2166;49.926;8.608;2023-06-10T12:12:06;43.00;28.50
4306;DHT22;2166;49.926;8.608;2023-06-10T12:15:00;43.80;28.00
4306;DHT22;2166;49.926;8.608;2023-06-10T12:17:38;43.60;27.90
4306;DHT22;2166;49.926;8.608;2023-06-10T12:20:25;42.40;28.80
4306;DHT22;2166;49.926;8.608;2023-06-10T12:22:59;41.70;30.30
4306;DHT22;2166;49.926;8.608;2023-06-10T12:25:30;41.10;30.00
4306;DHT22;2166;49.926;8.608;2023-06-10T12:28:00;40.80;29.60
4306;DHT22;2166;49.926;8.608;2023-06-10T12:30:31;41.20;29.00
4306;DHT22;2166;49.926;8.608;2023-06-10T12:33:01;41.20;30.70
4306;DHT22;2166;49.926;8.608;2023-06-10T12:35:30;41.10;31.30
4306;DHT22;2166;49.926;8.608;2023-06-10T12:38:02;40.40;31.80
4306;DHT22;2166;49.926;8.608;2023-06-10T12:40:36;40.10;30.40
4306;DHT22;2166;49.926;8.608;2023-06-10T12:43:09;39.50;30.90
4306;DHT22;2166;49.926;8.608;2023-06-10T12:45:46;39.50;31.60
4306;DHT22;2166;49.926;8.608;2023-06-10T12:48:18;39.30;30.70
4306;DHT22;2166;49.926;8.608;2023-06-10T12:50:51;39.30;30.80
4306;DHT22;2166;49.926;8.608;2023-06-10T12:53:24;38.90;31.20
4306;DHT22;2166;49.926;8.608;2023-06-10T12:55:54;38.10;31.40
4306;DHT22;2166;49.926;8.608;2023-06-10T12:58:27;38.00;32.30
4306;DHT22;2166;49.926;8.608;2023-06-10T13:00:58;37.80;31.40
4306;DHT22;2166;49.926;8.608;2023-06-10T13:03:26;37.70;31.50
4306;DHT22;2166;49.926;8.608;2023-06-10T13:05:55;37.90;31.80
4306;DHT22;2166;49.926;8.608;2023-06-10T13:08:25;37.50;32.20
4306;DHT22;2166;49.926;8.608;2023-06-10T13:10:53;37.40;33.20
4306;DHT22;2166;49.926;8.608;2023-06-10T13:13:22;37.50;34.00
4306;DHT22;2166;49.926;8.608;2023-06-10T13:15:54;37.60;33.50
4306;DHT22;2166;49.926;8.608;2023-06-10T13:18:24;37.90;32.00
4306;DHT22;2166;49.926;8.608;2023-06-10T13:20:54;37.70;33.20
4306;DHT22;2166;49.926;8.608;2023-06-10T13:23:23;37.70;32.30
4306;DHT22;2166;49.926;8.608;2023-06-10T13:25:52;37.80;32.90
4306;DHT22;2166;49.926;8.608;2023-06-10T13:28:20;38.00;33.10
4306;DHT22;2166;49.926;8.608;2023-06-10T13:30:49;38.00;32.10
4306;DHT22;2166;49.926;8.608;2023-06-10T13:33:21;37.60;33.20
4306;DHT22;2166;49.926;8.608;2023-06-10T13:35:51;37.40;33.30
4306;DHT22;2166;49.926;8.608;2023-06-10T13:38:19;37.40;34.70
4306;DHT22;2166;49.926;8.608;2023-06-10T13:40:48;38.30;34.20
4306;DHT22;2166;49.926;8.608;2023-06-10T13:43:18;38.80;33.00
4306;DHT22;2166;49.926;8.608;2023-06-10T13:45:50;38.30;33.80
4306;DHT22;2166;49.926;8.608;2023-06-10T13:48:23;37.90;34.40
4306;DHT22;2166;49.926;8.608;2023-06-10T13:50:52;38.10;33.90
4306;DHT22;2166;49.926;8.608;2023-06-10T13:53:23;38.00;33.30
4306;DHT22;2166;49.926;8.608;2023-06-10T13:55:51;38.60;33.80
4306;DHT22;2166;49.926;8.608;2023-06-10T13:58:27;39.40;32.20
4306;DHT22;2166;49.926;8.608;2023-06-10T14:00:58;39.80;31.50
4306;DHT22;2166;49.926;8.608;2023-06-10T14:03:29;39.50;31.90
4306;DHT22;2166;49.926;8.608;2023-06-10T14:06:00;39.50;31.40
4306;DHT22;2166;49.926;8.608;2023-06-10T14:08:31;39.30;31.90
4306;DHT22;2166;49.926;8.608;2023-06-10T14:11:00;38.80;31.30
4306;DHT22;2166;49.926;8.608;2023-06-10T14:13:32;38.50;31.80
4306;DHT22;2166;49.926;8.608;2023-06-10T14:16:01;39.00;32.70
4306;DHT22;2166;49.926;8.608;2023-06-10T14:18:32;39.90;30.80
4306;DHT22;2166;49.926;8.608;2023-06-10T14:21:01;40.60;30.50
4306;DHT22;2166;49.926;8.608;2023-06-10T14:23:30;41.30;29.80
4306;DHT22;2166;49.926;8.608;2023-06-10T14:25:59;41.60;29.50
4306;DHT22;2166;49.926;8.608;2023-06-10T14:28:28;41.90;29.70
4306;DHT22;2166;49.926;8.608;2023-06-10T14:30:56;42.10;29.50
4306;DHT22;2166;49.926;8.608;2023-06-10T14:33:25;42.60;29.40
4306;DHT22;2166;49.926;8.608;2023-06-10T14:35:55;42.90;29.00
4306;DHT22;2166;49.926;8.608;2023-06-10T14:38:23;43.20;28.80
4306;DHT22;2166;49.926;8.608;2023-06-10T14:40:52;42.90;28.70
4306;DHT22;2166;49.926;8.608;2023-06-10T14:43:23;42.70;28.70
4306;DHT22;2166;49.926;8.608;2023-06-10T14:45:51;43.60;28.50
4306;DHT22;2166;49.926;8.608;2023-06-10T14:48:22;44.70;27.90
4306;DHT22;2166;49.926;8.608;2023-06-10T14:50:51;45.00;28.50
4306;DHT22;2166;49.926;8.608;2023-06-10T14:53:24;43.20;30.60
4306;DHT22;2166;49.926;8.608;2023-06-10T14:55:52;41.40;31.90
4306;DHT22;2166;49.926;8.608;2023-06-10T14:58:23;40.30;33.30
4306;DHT22;2166;49.926;8.608;2023-06-10T15:00:52;39.10;34.00
4306;DHT22;2166;49.926;8.608;2023-06-10T15:03:20;38.00;34.90
4306;DHT22;2166;49.926;8.608;2023-06-10T15:05:49;37.20;35.70
4306;DHT22;2166;49.926;8.608;2023-06-10T15:08:18;36.80;36.30
4306;DHT22;2166;49.926;8.608;2023-06-10T15:10:48;36.40;36.80
4306;DHT22;2166;49.926;8.608;2023-06-10T15:13:17;36.20;36.90
4306;DHT22;2166;49.926;8.608;2023-06-10T15:15:45;36.00;38.00
4306;DHT22;2166;49.926;8.608;2023-06-10T15:18:14;35.30;38.20
4306;DHT22;2166;49.926;8.608;2023-06-10T15:20:43;35.00;39.30
4306;DHT22;2166;49.926;8.608;2023-06-10T15:23:13;34.80;39.40
4306;DHT22;2166;49.926;8.608;2023-06-10T15:25:41;34.60;39.20
4306;DHT22;2166;49.926;8.608;2023-06-10T15:28:11;34.60;39.20
4306;DHT22;2166;49.926;8.608;2023-06-10T15:30:40;34.50;39.20
4306;DHT22;2166;49.926;8.608;2023-06-10T15:33:09;34.20;38.90
4306;DHT22;2166;49.926;8.608;2023-06-10T15:35:38;34.40;38.70
4306;DHT22;2166;49.926;8.608;2023-06-10T15:38:06;35.00;39.00
4306;DHT22;2166;49.926;8.608;2023-06-10T15:40:36;35.70;38.30
4306;DHT22;2166;49.926;8.608;2023-06-10T15:43:05;36.10;37.00
4306;DHT22;2166;49.926;8.608;2023-06-10T15:45:35;36.40;36.90
4306;DHT22;2166;49.926;8.608;2023-06-10T15:48:05;36.20;36.70
4306;DHT22;2166;49.926;8.608;2023-06-10T15:50:33;36.40;35.40
4306;DHT22;2166;49.926;8.608;2023-06-10T15:53:04;36.30;36.90
4306;DHT22;2166;49.926;8.608;2023-06-10T15:55:34;36.10;36.30
4306;DHT22;2166;49.926;8.608;2023-06-10T15:58:02;36.00;36.60
4306;DHT22;2166;49.926;8.608;2023-06-10T16:00:31;36.50;37.40
4306;DHT22;2166;49.926;8.608;2023-06-10T16:03:01;36.40;36.50
4306;DHT22;2166;49.926;8.608;2023-06-10T16:05:30;36.60;35.60
4306;DHT22;2166;49.926;8.608;2023-06-10T16:08:01;36.80;35.80
4306;DHT22;2166;49.926;8.608;2023-06-10T16:10:29;37.50;34.00
4306;DHT22;2166;49.926;8.608;2023-06-10T16:12:58;38.10;34.90
4306;DHT22;2166;49.926;8.608;2023-06-10T16:15:27;38.30;34.80
4306;DHT22;2166;49.926;8.608;2023-06-10T16:17:56;38.30;35.30
4306;DHT22;2166;49.926;8.608;2023-06-10T16:20:26;38.00;35.00
4306;DHT22;2166;49.926;8.608;2023-06-10T16:22:55;38.20;34.00
4306;DHT22;2166;49.926;8.608;2023-06-10T16:25:28;38.50;34.00
4306;DHT22;2166;49.926;8.608;2023-06-10T16:27:57;38.60;33.70
4306;DHT22;2166;49.926;8.608;2023-06-10T16:30:26;38.40;35.70
4306;DHT22;2166;49.926;8.608;2023-06-10T16:32:55;38.10;35.40